Time,TemperatureF,DewpointF,PressureIn,WindDirection,WindDirectionDegrees,WindSpeedMPH,WindSpeedGustMPH,Humidity,HourlyPrecipIn,Conditions,Clouds,dailyrainin,SoftwareType,DateUTC
2013-03-25 09:04:00,28.6,27.4,29.47,North,350,0.0,2.0,95,0.00,,,0.00,Wunderground v.1.15,2013-03-25 13:04:00,
2013-03-25 09:05:00,28.6,27.4,29.47,North,350,0.0,2.0,95,0.00,,,0.00,Wunderground v.1.15,2013-03-25 13:05:00,
2013-03-25 09:06:00,28.6,27.4,29.47,North,352,0.0,2.0,95,0.00,,,0.00,Wunderground v.1.15,2013-03-25 13:06:00,
2013-03-25 09:11:00,28.7,27.4,29.47,North,352,0.0,2.0,95,0.00,,,0.00,Wunderground v.1.15,2013-03-25 13:11:00,
2013-03-25 09:17:00,29.0,27.5,29.47,NNW,340,0.0,0.0,94,0.00,,,0.00,Wunderground v.1.15,2013-03-25 13:17:00,
2013-03-25 09:22:00,29.0,27.5,29.47,NNW,340,0.0,0.0,94,0.00,,,0.00,Wunderground v.1.15,2013-03-25 13:22:00,
2013-03-25 09:27:00,29.3,27.8,29.47,NNW,340,0.0,0.0,94,0.00,,,0.00,Wunderground v.1.15,2013-03-25 13:27:00,
2013-03-25 09:33:00,29.4,27.9,29.47,NNW,340,0.0,0.0,94,0.00,,,0.00,Wunderground v.1.15,2013-03-25 13:33:00,
2013-03-25 09:39:00,29.6,28.1,29.47,NNW,347,0.0,0.0,94,0.00,,,0.00,Wunderground v.1.15,2013-03-25 13:39:00,
2013-03-25 09:44:00,29.8,28.3,29.47,NNW,338,0.0,0.0,94,0.00,,,0.00,Wunderground v.1.15,2013-03-25 13:44:00,
2013-03-25 09:50:00,30.0,28.2,29.47,NNW,342,0.0,0.0,93,0.00,,,0.00,Wunderground v.1.15,2013-03-25 13:50:00,
2013-03-25 09:55:00,30.2,28.4,29.47,NNW,340,0.0,0.0,93,0.00,,,0.00,Wunderground v.1.15,2013-03-25 13:55:00,
2013-03-25 10:00:00,30.3,28.3,29.47,North,356,0.0,0.0,92,0.00,,,0.00,Wunderground v.1.15,2013-03-25 14:00:00,
2013-03-25 10:06:00,30.6,28.6,29.47,North,349,0.0,0.0,92,0.00,,,0.00,Wunderground v.1.15,2013-03-25 14:06:00,
2013-03-25 10:11:00,30.8,28.8,29.47,NNW,347,0.0,0.0,92,0.00,,,0.00,Wunderground v.1.15,2013-03-25 14:11:00,
2013-03-25 10:16:00,31.2,29.1,29.47,NNW,347,0.0,0.0,92,0.00,,,0.00,Wunderground v.1.15,2013-03-25 14:16:00,
2013-03-25 10:22:00,31.1,28.8,29.47,NW,314,0.0,0.0,91,0.00,,,0.00,Wunderground v.1.15,2013-03-25 14:22:00,
2013-03-25 10:27:00,30.9,28.3,29.47,NNE,17,0.0,0.0,90,0.00,,,0.00,Wunderground v.1.15,2013-03-25 14:27:00,
2013-03-25 10:32:00,30.9,28.6,29.47,NNW,345,0.0,0.0,91,0.00,,,0.00,Wunderground v.1.15,2013-03-25 14:32:00,
2013-03-25 10:38:00,30.7,28.1,29.47,NNW,342,0.0,0.0,90,0.00,,,0.00,Wunderground v.1.15,2013-03-25 14:38:00,
2013-03-25 10:43:00,30.5,27.9,29.47,North,3,0.0,0.0,90,0.00,,,0.00,Wunderground v.1.15,2013-03-25 14:43:00,
2013-03-25 10:49:00,30.6,28.3,29.47,North,3,0.0,0.0,91,0.00,,,0.00,Wunderground v.1.15,2013-03-25 14:49:00,
2013-03-25 10:54:00,30.7,28.4,29.47,North,355,0.0,0.0,91,0.00,,,0.00,Wunderground v.1.15,2013-03-25 14:54:00,
2013-03-25 11:00:00,30.7,28.4,29.47,North,5,0.0,0.0,91,0.00,,,0.00,Wunderground v.1.15,2013-03-25 15:00:00,
2013-03-25 11:06:00,30.8,28.5,29.47,North,356,0.0,0.0,91,0.00,,,0.00,Wunderground v.1.15,2013-03-25 15:06:00,
2013-03-25 11:12:00,30.9,28.9,29.47,North,356,0.0,0.0,92,0.00,,,0.00,Wunderground v.1.15,2013-03-25 15:12:00,
2013-03-25 11:17:00,31.1,29.0,29.47,North,355,0.0,0.0,92,0.00,,,0.00,Wunderground v.1.15,2013-03-25 15:17:00,
2013-03-25 11:23:00,30.9,28.6,29.47,NNW,342,0.0,0.0,91,0.00,,,0.00,Wunderground v.1.15,2013-03-25 15:23:00,
2013-03-25 11:28:00,31.2,29.1,29.47,NNW,347,0.0,0.0,92,0.00,,,0.00,Wunderground v.1.15,2013-03-25 15:28:00,
2013-03-25 11:34:00,31.2,28.9,29.47,NW,326,0.0,0.0,91,0.00,,,0.00,Wunderground v.1.15,2013-03-25 15:34:00,
2013-03-25 11:39:00,30.9,28.6,29.47,NNW,342,0.0,0.0,91,0.00,,,0.00,Wunderground v.1.15,2013-03-25 15:39:00,
2013-03-25 11:44:00,31.0,28.9,29.48,NNW,342,0.0,0.0,92,0.00,,,0.00,Wunderground v.1.15,2013-03-25 15:44:00,
2013-03-25 11:50:00,31.2,29.1,29.47,NNW,342,0.0,0.0,92,0.00,,,0.00,Wunderground v.1.15,2013-03-25 15:50:00,
2013-03-25 11:55:00,31.2,28.9,29.48,NNW,342,0.0,0.0,91,0.00,,,0.00,Wunderground v.1.15,2013-03-25 15:55:00,
2013-03-25 12:00:00,31.4,29.3,29.47,North,10,0.0,0.0,92,0.00,,,0.00,Wunderground v.1.15,2013-03-25 16:00:00,
2013-03-25 12:06:00,31.3,29.0,29.47,North,7,0.0,0.0,91,0.00,,,0.00,Wunderground v.1.15,2013-03-25 16:06:00,
2013-03-25 12:12:00,31.2,28.9,29.47,NNE,17,0.0,0.0,91,0.00,,,0.00,Wunderground v.1.15,2013-03-25 16:12:00,
2013-03-25 12:17:00,31.1,28.8,29.48,North,352,0.0,0.0,91,0.00,,,0.00,Wunderground v.1.15,2013-03-25 16:17:00,
2013-03-25 12:22:00,31.4,29.3,29.48,North,357,0.0,0.0,92,0.00,,,0.00,Wunderground v.1.15,2013-03-25 16:22:00,
2013-03-25 12:28:00,31.7,29.4,29.48,North,350,0.0,0.0,91,0.00,,,0.00,Wunderground v.1.15,2013-03-25 16:28:00,
2013-03-25 12:34:00,32.1,29.8,29.48,North,350,0.0,0.0,91,0.00,,,0.00,Wunderground v.1.15,2013-03-25 16:34:00,
2013-03-25 12:39:00,32.3,29.7,29.47,North,350,0.0,0.0,90,0.00,,,0.00,Wunderground v.1.15,2013-03-25 16:39:00,
2013-03-25 12:45:00,32.5,29.9,29.48,North,350,0.0,0.0,90,0.00,,,0.00,Wunderground v.1.15,2013-03-25 16:45:00,
2013-03-25 12:51:00,32.4,29.8,29.48,NNW,339,0.0,0.0,90,0.00,,,0.00,Wunderground v.1.15,2013-03-25 16:51:00,
2013-03-25 12:57:00,32.8,30.2,29.48,NNW,339,0.0,0.0,90,0.00,,,0.00,Wunderground v.1.15,2013-03-25 16:57:00,
2013-03-25 13:03:00,33.3,30.4,29.48,NNW,334,0.0,0.0,89,0.00,,,0.00,Wunderground v.1.15,2013-03-25 17:03:00,
2013-03-25 13:08:00,33.7,30.5,29.48,North,7,0.0,0.0,88,0.00,,,0.00,Wunderground v.1.15,2013-03-25 17:08:00,
2013-03-25 13:13:00,33.5,30.0,29.48,North,11,0.0,0.0,87,0.00,,,0.00,Wunderground v.1.15,2013-03-25 17:13:00,
2013-03-25 13:19:00,33.2,29.8,29.48,NNW,342,0.0,0.0,87,0.00,,,0.00,Wunderground v.1.15,2013-03-25 17:19:00,
2013-03-25 13:24:00,33.0,29.6,29.48,NNE,18,0.0,0.0,87,0.00,,,0.00,Wunderground v.1.15,2013-03-25 17:24:00,
2013-03-25 13:29:00,33.6,30.7,29.48,North,7,0.0,0.0,89,0.00,,,0.00,Wunderground v.1.15,2013-03-25 17:29:00,
2013-03-25 13:34:00,33.6,30.1,29.48,NNE,15,0.0,0.0,87,0.00,,,0.00,Wunderground v.1.15,2013-03-25 17:34:00,
2013-03-25 13:39:00,32.9,29.5,29.48,NNE,17,0.0,0.0,87,0.00,,,0.00,Wunderground v.1.15,2013-03-25 17:39:00,
2013-03-25 13:45:00,32.8,29.9,29.48,North,1,0.0,0.0,89,0.00,,,0.00,Wunderground v.1.15,2013-03-25 17:45:00,